All Spectrum Aviation - Van Nuys Airport - KVNY

HOME

Van Nuys Tower Recordings

Condor Squadron KVNY Webcam

Visit our Electronics Store

Condor Squadron Webcam - Van Nuys Airport - KVNY
Picture taken: Sun, 19 Feb 2017 22:16:25 -0800
YouTube Channel!    Latest Timelapse Movie    Full Size Image    Regular Size Image    

2017/02/20 05:51 KVNY 200551Z 13003KT 10SM -RA SCT012 OVC019 12/11 A3014 RMK AO2 RAB24 SLP204 P0000 60003 T01170106 10139 20117 53028

HOME

Van Nuys Tower Recordings

Condor Squadron KVNY Webcam

Visit our Electronics Store